sensor_id;sensor_type;location;lat;lon;timestamp;pressure;altitude;pressure_sealevel;temperature;humidity
49627;BME280;35527;54.616;39.786;2023-02-28T00:03:12;100414.22;;;-4.05;79.05
49627;BME280;35527;54.616;39.786;2023-02-28T00:06:14;100420.03;;;-4.08;79.65
49627;BME280;35527;54.616;39.786;2023-02-28T00:09:17;100408.91;;;-4.14;80.81
49627;BME280;35527;54.616;39.786;2023-02-28T00:12:20;100412.53;;;-4.06;80.97
49627;BME280;35527;54.616;39.786;2023-02-28T00:15:27;100425.38;;;-3.98;80.95
49627;BME280;35527;54.616;39.786;2023-02-28T00:18:30;100424.66;;;-3.94;81.02
49627;BME280;35527;54.616;39.786;2023-02-28T00:21:32;100388.00;;;-4.09;80.90
49627;BME280;35527;54.616;39.786;2023-02-28T00:24:36;100398.97;;;-4.08;81.21
49627;BME280;35527;54.616;39.786;2023-02-28T00:27:40;100379.00;;;-4.29;80.41
49627;BME280;35527;54.616;39.786;2023-02-28T00:30:44;100413.28;;;-4.09;80.83
49627;BME280;35527;54.616;39.786;2023-02-28T00:33:48;100426.94;;;-4.02;81.55
49627;BME280;35527;54.616;39.786;2023-02-28T00:36:53;100411.63;;;-4.08;81.37
49627;BME280;35527;54.616;39.786;2023-02-28T00:40:00;100401.59;;;-4.32;80.95
49627;BME280;35527;54.616;39.786;2023-02-28T00:43:05;100418.25;;;-4.39;81.00
49627;BME280;35527;54.616;39.786;2023-02-28T00:46:11;100395.56;;;-4.64;82.48
49627;BME280;35527;54.616;39.786;2023-02-28T00:49:17;100403.41;;;-4.57;82.58
49627;BME280;35527;54.616;39.786;2023-02-28T00:52:25;100410.78;;;-4.63;82.72
49627;BME280;35527;54.616;39.786;2023-02-28T00:55:30;100391.63;;;-4.83;83.46
49627;BME280;35527;54.616;39.786;2023-02-28T00:58:35;100393.56;;;-4.74;83.09
49627;BME280;35527;54.616;39.786;2023-02-28T01:01:38;100407.63;;;-4.83;83.68
49627;BME280;35527;54.616;39.786;2023-02-28T01:04:42;100409.69;;;-4.96;83.90
49627;BME280;35527;54.616;39.786;2023-02-28T01:07:46;100372.78;;;-5.18;84.93
49627;BME280;35527;54.616;39.786;2023-02-28T01:10:50;100403.38;;;-5.09;85.26
49627;BME280;35527;54.616;39.786;2023-02-28T01:13:54;100387.88;;;-5.20;86.28
49627;BME280;35527;54.616;39.786;2023-02-28T01:16:59;100404.72;;;-5.19;86.01
49627;BME280;35527;54.616;39.786;2023-02-28T01:20:03;100398.81;;;-5.19;86.43
49627;BME280;35527;54.616;39.786;2023-02-28T01:23:06;100384.03;;;-5.34;87.09
49627;BME280;35527;54.616;39.786;2023-02-28T01:26:20;100388.25;;;-5.33;87.70
49627;BME280;35527;54.616;39.786;2023-02-28T01:29:24;100392.91;;;-5.46;88.74
49627;BME280;35527;54.616;39.786;2023-02-28T01:32:29;100377.84;;;-5.67;89.97
49627;BME280;35527;54.616;39.786;2023-02-28T01:35:34;100362.38;;;-5.77;91.11
49627;BME280;35527;54.616;39.786;2023-02-28T01:38:39;100350.19;;;-5.89;92.14
49627;BME280;35527;54.616;39.786;2023-02-28T01:41:42;100354.19;;;-5.96;92.31
49627;BME280;35527;54.616;39.786;2023-02-28T01:48:34;100357.91;;;-5.84;94.96
49627;BME280;35527;54.616;39.786;2023-02-28T01:51:45;100361.78;;;-5.70;96.08
49627;BME280;35527;54.616;39.786;2023-02-28T01:54:55;100352.00;;;-5.61;95.59
49627;BME280;35527;54.616;39.786;2023-02-28T01:58:02;100345.91;;;-5.92;95.45
49627;BME280;35527;54.616;39.786;2023-02-28T02:01:05;100327.22;;;-5.73;95.59
49627;BME280;35527;54.616;39.786;2023-02-28T02:04:14;100320.06;;;-5.86;96.07
49627;BME280;35527;54.616;39.786;2023-02-28T02:07:20;100344.84;;;-5.74;95.91
49627;BME280;35527;54.616;39.786;2023-02-28T02:10:41;100342.69;;;-5.63;95.65
49627;BME280;35527;54.616;39.786;2023-02-28T02:17:18;100348.50;;;-5.66;95.02
49627;BME280;35527;54.616;39.786;2023-02-28T02:28:02;100330.75;;;-5.69;95.36
49627;BME280;35527;54.616;39.786;2023-02-28T02:31:58;100326.81;;;-5.85;95.41
49627;BME280;35527;54.616;39.786;2023-02-28T02:35:28;100313.94;;;-5.93;94.76
49627;BME280;35527;54.616;39.786;2023-02-28T02:38:50;100304.53;;;-5.98;95.96
49627;BME280;35527;54.616;39.786;2023-02-28T02:41:56;100321.66;;;-5.88;96.23
49627;BME280;35527;54.616;39.786;2023-02-28T02:45:05;100331.00;;;-5.85;95.44
49627;BME280;35527;54.616;39.786;2023-02-28T02:48:14;100327.44;;;-5.91;96.17
49627;BME280;35527;54.616;39.786;2023-02-28T02:51:23;100335.09;;;-5.89;96.08
49627;BME280;35527;54.616;39.786;2023-02-28T02:54:34;100320.81;;;-5.89;95.34
49627;BME280;35527;54.616;39.786;2023-02-28T02:57:47;100332.41;;;-5.94;96.05
49627;BME280;35527;54.616;39.786;2023-02-28T03:00:55;100312.91;;;-5.99;97.03
49627;BME280;35527;54.616;39.786;2023-02-28T03:04:10;100293.22;;;-6.09;96.54
49627;BME280;35527;54.616;39.786;2023-02-28T03:07:15;100283.53;;;-6.23;96.89
49627;BME280;35527;54.616;39.786;2023-02-28T03:10:41;100291.94;;;-6.22;96.52
49627;BME280;35527;54.616;39.786;2023-02-28T03:24:19;100278.84;;;-6.36;97.65
49627;BME280;35527;54.616;39.786;2023-02-28T03:27:30;100285.25;;;-6.44;97.23
49627;BME280;35527;54.616;39.786;2023-02-28T03:30:56;100264.09;;;-6.49;96.31
49627;BME280;35527;54.616;39.786;2023-02-28T03:34:46;100230.47;;;-6.74;97.98
49627;BME280;35527;54.616;39.786;2023-02-28T03:37:33;100236.88;;;-6.82;98.28
49627;BME280;35527;54.616;39.786;2023-02-28T03:40:44;100248.78;;;-6.78;98.28
49627;BME280;35527;54.616;39.786;2023-02-28T03:43:54;100244.53;;;-6.79;98.76
49627;BME280;35527;54.616;39.786;2023-02-28T03:47:13;100256.06;;;-6.84;98.78
49627;BME280;35527;54.616;39.786;2023-02-28T03:50:39;100237.69;;;-6.83;99.15
49627;BME280;35527;54.616;39.786;2023-02-28T03:53:50;100212.44;;;-7.07;99.73
49627;BME280;35527;54.616;39.786;2023-02-28T04:00:31;100210.16;;;-7.01;100.00
49627;BME280;35527;54.616;39.786;2023-02-28T04:03:38;100188.19;;;-7.28;100.00
49627;BME280;35527;54.616;39.786;2023-02-28T04:06:42;100205.59;;;-7.11;100.00
49627;BME280;35527;54.616;39.786;2023-02-28T04:09:47;100207.13;;;-7.15;99.63
49627;BME280;35527;54.616;39.786;2023-02-28T04:12:58;100207.91;;;-7.16;100.00
49627;BME280;35527;54.616;39.786;2023-02-28T04:16:06;100200.88;;;-7.04;99.75
49627;BME280;35527;54.616;39.786;2023-02-28T04:19:20;100168.28;;;-7.23;99.82
49627;BME280;35527;54.616;39.786;2023-02-28T04:22:24;100183.28;;;-7.02;98.05
49627;BME280;35527;54.616;39.786;2023-02-28T04:25:28;100199.41;;;-6.74;98.52
49627;BME280;35527;54.616;39.786;2023-02-28T04:28:33;100186.84;;;-6.50;96.51
49627;BME280;35527;54.616;39.786;2023-02-28T04:31:38;100191.50;;;-6.13;93.43
49627;BME280;35527;54.616;39.786;2023-02-28T04:34:42;100194.63;;;-5.69;89.42
49627;BME280;35527;54.616;39.786;2023-02-28T04:37:49;100164.53;;;-5.36;84.56
49627;BME280;35527;54.616;39.786;2023-02-28T04:40:59;100177.84;;;-5.13;81.78
49627;BME280;35527;54.616;39.786;2023-02-28T04:44:02;100182.91;;;-4.84;79.41
49627;BME280;35527;54.616;39.786;2023-02-28T04:47:06;100133.72;;;-4.37;74.19
49627;BME280;35527;54.616;39.786;2023-02-28T04:50:09;100164.63;;;-3.80;70.94
49627;BME280;35527;54.616;39.786;2023-02-28T04:53:13;100167.66;;;-3.59;67.02
49627;BME280;35527;54.616;39.786;2023-02-28T04:56:17;100145.78;;;-3.57;67.07
49627;BME280;35527;54.616;39.786;2023-02-28T04:59:23;100158.69;;;-3.07;66.22
49627;BME280;35527;54.616;39.786;2023-02-28T05:02:25;100137.00;;;-2.53;62.81
49627;BME280;35527;54.616;39.786;2023-02-28T05:05:32;100152.06;;;-2.15;60.42
49627;BME280;35527;54.616;39.786;2023-02-28T05:08:35;100112.72;;;-1.92;59.79
49627;BME280;35527;54.616;39.786;2023-02-28T05:11:47;100135.28;;;-1.55;57.53
49627;BME280;35527;54.616;39.786;2023-02-28T05:15:17;100130.38;;;-0.82;56.04
49627;BME280;35527;54.616;39.786;2023-02-28T05:18:45;100133.50;;;-0.27;54.80
49627;BME280;35527;54.616;39.786;2023-02-28T05:21:52;100094.84;;;0.14;52.91
49627;BME280;35527;54.616;39.786;2023-02-28T05:24:56;100107.94;;;-0.42;52.24
49627;BME280;35527;54.616;39.786;2023-02-28T05:28:24;100135.94;;;-0.39;52.60
49627;BME280;35527;54.616;39.786;2023-02-28T05:31:29;100114.19;;;-0.07;52.22
49627;BME280;35527;54.616;39.786;2023-02-28T05:34:33;100084.09;;;0.50;51.44
49627;BME280;35527;54.616;39.786;2023-02-28T05:37:38;100108.75;;;0.62;51.31
49627;BME280;35527;54.616;39.786;2023-02-28T05:40:42;100075.97;;;1.35;49.47
49627;BME280;35527;54.616;39.786;2023-02-28T05:44:12;100069.13;;;1.25;47.85
49627;BME280;35527;54.616;39.786;2023-02-28T05:47:20;100075.94;;;1.37;47.74
49627;BME280;35527;54.616;39.786;2023-02-28T05:50:23;100076.88;;;1.61;47.51
49627;BME280;35527;54.616;39.786;2023-02-28T05:53:26;100053.06;;;1.95;45.44
49627;BME280;35527;54.616;39.786;2023-02-28T05:56:30;100040.28;;;1.60;47.06
49627;BME280;35527;54.616;39.786;2023-02-28T05:59:36;100033.31;;;2.79;44.31
49627;BME280;35527;54.616;39.786;2023-02-28T06:02:43;100045.72;;;3.52;43.15
49627;BME280;35527;54.616;39.786;2023-02-28T06:05:52;100041.69;;;3.13;42.95
49627;BME280;35527;54.616;39.786;2023-02-28T06:08:56;100019.66;;;2.83;43.21
49627;BME280;35527;54.616;39.786;2023-02-28T06:12:03;100033.44;;;2.39;44.43
49627;BME280;35527;54.616;39.786;2023-02-28T06:15:12;100016.38;;;2.53;44.07
49627;BME280;35527;54.616;39.786;2023-02-28T06:18:19;100007.66;;;3.00;43.66
49627;BME280;35527;54.616;39.786;2023-02-28T06:21:24;100012.19;;;2.20;43.83
49627;BME280;35527;54.616;39.786;2023-02-28T06:24:28;99992.63;;;2.11;43.85
49627;BME280;35527;54.616;39.786;2023-02-28T06:27:31;99996.09;;;1.75;45.11
49627;BME280;35527;54.616;39.786;2023-02-28T06:30:40;99990.16;;;1.77;45.50
49627;BME280;35527;54.616;39.786;2023-02-28T06:33:46;99988.31;;;2.42;44.38
49627;BME280;35527;54.616;39.786;2023-02-28T06:36:51;99977.25;;;2.46;44.02
49627;BME280;35527;54.616;39.786;2023-02-28T06:39:54;99971.31;;;2.34;43.42
49627;BME280;35527;54.616;39.786;2023-02-28T06:43:02;99948.34;;;2.28;44.03
49627;BME280;35527;54.616;39.786;2023-02-28T06:46:12;99929.22;;;3.07;43.27
49627;BME280;35527;54.616;39.786;2023-02-28T06:49:17;99928.63;;;2.57;43.01
49627;BME280;35527;54.616;39.786;2023-02-28T06:52:25;99915.59;;;3.03;42.31
49627;BME280;35527;54.616;39.786;2023-02-28T06:55:30;99939.31;;;4.21;40.34
49627;BME280;35527;54.616;39.786;2023-02-28T06:58:33;99911.41;;;3.95;39.77
49627;BME280;35527;54.616;39.786;2023-02-28T07:01:38;99928.19;;;4.22;39.41
49627;BME280;35527;54.616;39.786;2023-02-28T07:04:42;99901.53;;;3.56;41.02
49627;BME280;35527;54.616;39.786;2023-02-28T07:07:47;99885.66;;;3.19;41.20
49627;BME280;35527;54.616;39.786;2023-02-28T07:10:53;99888.69;;;4.41;39.84
49627;BME280;35527;54.616;39.786;2023-02-28T07:13:58;99907.22;;;5.19;38.06
49627;BME280;35527;54.616;39.786;2023-02-28T07:17:01;99868.03;;;5.11;37.60
49627;BME280;35527;54.616;39.786;2023-02-28T07:20:05;99885.63;;;4.77;37.54
49627;BME280;35527;54.616;39.786;2023-02-28T07:23:08;99867.63;;;4.80;38.03
49627;BME280;35527;54.616;39.786;2023-02-28T07:26:14;99875.81;;;5.56;37.40
49627;BME280;35527;54.616;39.786;2023-02-28T07:29:19;99868.53;;;5.81;36.61
49627;BME280;35527;54.616;39.786;2023-02-28T07:32:27;99843.53;;;5.42;36.85
49627;BME280;35527;54.616;39.786;2023-02-28T07:35:31;99825.34;;;5.07;36.91
49627;BME280;35527;54.616;39.786;2023-02-28T07:38:36;99827.81;;;5.13;36.80
49627;BME280;35527;54.616;39.786;2023-02-28T07:41:43;99836.78;;;4.86;38.10
49627;BME280;35527;54.616;39.786;2023-02-28T07:44:48;99840.31;;;4.79;38.00
49627;BME280;35527;54.616;39.786;2023-02-28T07:47:56;99842.59;;;4.37;38.46
49627;BME280;35527;54.616;39.786;2023-02-28T07:51:01;99784.13;;;4.03;38.88
49627;BME280;35527;54.616;39.786;2023-02-28T07:54:04;99823.66;;;4.48;38.87
49627;BME280;35527;54.616;39.786;2023-02-28T07:57:08;99795.50;;;3.83;39.45
49627;BME280;35527;54.616;39.786;2023-02-28T08:00:12;99761.72;;;3.51;40.02
49627;BME280;35527;54.616;39.786;2023-02-28T08:03:21;99769.41;;;3.52;40.06
49627;BME280;35527;54.616;39.786;2023-02-28T08:06:25;99759.56;;;3.88;40.23
49627;BME280;35527;54.616;39.786;2023-02-28T08:09:28;99736.28;;;3.37;40.74
49627;BME280;35527;54.616;39.786;2023-02-28T08:12:34;99741.78;;;3.02;41.89
49627;BME280;35527;54.616;39.786;2023-02-28T08:15:41;99756.09;;;3.21;41.82
49627;BME280;35527;54.616;39.786;2023-02-28T08:18:45;99750.84;;;3.32;41.26
49627;BME280;35527;54.616;39.786;2023-02-28T08:21:49;99730.22;;;3.46;40.93
49627;BME280;35527;54.616;39.786;2023-02-28T08:24:52;99737.75;;;3.61;41.29
49627;BME280;35527;54.616;39.786;2023-02-28T08:27:58;99694.56;;;3.32;41.22
49627;BME280;35527;54.616;39.786;2023-02-28T08:31:08;99703.19;;;3.25;42.26
49627;BME280;35527;54.616;39.786;2023-02-28T08:34:40;99727.72;;;3.43;42.18
49627;BME280;35527;54.616;39.786;2023-02-28T08:37:43;99700.25;;;3.57;40.94
49627;BME280;35527;54.616;39.786;2023-02-28T08:40:47;99688.19;;;2.92;42.87
49627;BME280;35527;54.616;39.786;2023-02-28T08:43:52;99689.44;;;3.32;42.35
49627;BME280;35527;54.616;39.786;2023-02-28T08:47:20;99686.78;;;4.07;40.56
49627;BME280;35527;54.616;39.786;2023-02-28T08:50:23;99688.63;;;4.54;40.26
49627;BME280;35527;54.616;39.786;2023-02-28T08:53:26;99650.69;;;3.64;40.48
49627;BME280;35527;54.616;39.786;2023-02-28T08:56:30;99647.25;;;3.67;41.59
49627;BME280;35527;54.616;39.786;2023-02-28T08:59:36;99631.63;;;3.85;41.14
49627;BME280;35527;54.616;39.786;2023-02-28T09:02:40;99640.63;;;3.50;40.98
49627;BME280;35527;54.616;39.786;2023-02-28T09:05:58;99621.34;;;2.47;42.76
49627;BME280;35527;54.616;39.786;2023-02-28T09:09:02;99640.38;;;2.13;43.86
49627;BME280;35527;54.616;39.786;2023-02-28T09:12:08;99653.66;;;2.50;43.82
49627;BME280;35527;54.616;39.786;2023-02-28T09:15:12;99629.38;;;2.94;42.99
49627;BME280;35527;54.616;39.786;2023-02-28T09:18:16;99643.38;;;2.61;43.51
49627;BME280;35527;54.616;39.786;2023-02-28T09:21:19;99652.81;;;3.31;42.63
49627;BME280;35527;54.616;39.786;2023-02-28T09:24:23;99639.22;;;3.28;42.42
49627;BME280;35527;54.616;39.786;2023-02-28T09:27:25;99605.78;;;2.72;42.72
49627;BME280;35527;54.616;39.786;2023-02-28T09:30:30;99609.06;;;2.83;43.64
49627;BME280;35527;54.616;39.786;2023-02-28T09:33:32;99591.19;;;2.83;42.59
49627;BME280;35527;54.616;39.786;2023-02-28T09:36:37;99592.34;;;3.26;43.16
49627;BME280;35527;54.616;39.786;2023-02-28T09:39:47;99618.72;;;3.93;41.88
49627;BME280;35527;54.616;39.786;2023-02-28T09:42:53;99559.66;;;3.48;42.07
49627;BME280;35527;54.616;39.786;2023-02-28T09:46:08;99569.31;;;3.27;42.95
49627;BME280;35527;54.616;39.786;2023-02-28T09:49:19;99572.09;;;3.09;42.74
49627;BME280;35527;54.616;39.786;2023-02-28T09:52:29;99584.00;;;3.13;43.54
49627;BME280;35527;54.616;39.786;2023-02-28T09:55:43;99545.44;;;3.30;43.13
49627;BME280;35527;54.616;39.786;2023-02-28T10:06:08;99560.19;;;1.17;47.54
49627;BME280;35527;54.616;39.786;2023-02-28T10:09:21;99558.47;;;1.20;49.06
49627;BME280;35527;54.616;39.786;2023-02-28T10:12:28;99559.44;;;0.92;49.59
49627;BME280;35527;54.616;39.786;2023-02-28T10:15:34;99557.84;;;0.63;50.40
49627;BME280;35527;54.616;39.786;2023-02-28T10:25:21;99524.84;;;1.91;47.69
49627;BME280;35527;54.616;39.786;2023-02-28T10:28:26;99502.06;;;1.69;48.22
49627;BME280;35527;54.616;39.786;2023-02-28T10:31:32;99510.44;;;2.67;46.61
49627;BME280;35527;54.616;39.786;2023-02-28T10:34:35;99466.41;;;2.46;45.79
49627;BME280;35527;54.616;39.786;2023-02-28T10:37:42;99486.75;;;2.56;46.21
49627;BME280;35527;54.616;39.786;2023-02-28T10:40:48;99489.47;;;2.39;45.97
49627;BME280;35527;54.616;39.786;2023-02-28T10:44:14;99483.22;;;2.64;46.20
49627;BME280;35527;54.616;39.786;2023-02-28T10:47:19;99442.00;;;2.24;45.98
49627;BME280;35527;54.616;39.786;2023-02-28T10:53:52;99463.63;;;3.27;45.16
49627;BME280;35527;54.616;39.786;2023-02-28T10:57:18;99446.94;;;3.57;44.53
49627;BME280;35527;54.616;39.786;2023-02-28T11:00:23;99424.06;;;3.48;43.84
49627;BME280;35527;54.616;39.786;2023-02-28T11:03:33;99429.16;;;2.95;44.34
49627;BME280;35527;54.616;39.786;2023-02-28T11:06:36;99444.28;;;2.47;45.83
49627;BME280;35527;54.616;39.786;2023-02-28T11:09:40;99434.69;;;2.63;46.29
49627;BME280;35527;54.616;39.786;2023-02-28T11:12:48;99396.53;;;3.11;45.08
49627;BME280;35527;54.616;39.786;2023-02-28T11:15:57;99396.31;;;3.26;44.33
49627;BME280;35527;54.616;39.786;2023-02-28T11:19:02;99422.84;;;3.17;44.43
49627;BME280;35527;54.616;39.786;2023-02-28T11:22:07;99390.59;;;3.09;45.15
49627;BME280;35527;54.616;39.786;2023-02-28T11:25:33;99389.41;;;2.74;45.57
49627;BME280;35527;54.616;39.786;2023-02-28T11:28:42;99376.56;;;2.14;47.36
49627;BME280;35527;54.616;39.786;2023-02-28T11:32:05;99387.44;;;1.52;48.72
49627;BME280;35527;54.616;39.786;2023-02-28T11:35:19;99363.19;;;1.07;50.76
49627;BME280;35527;54.616;39.786;2023-02-28T11:38:25;99375.38;;;0.63;51.64
49627;BME280;35527;54.616;39.786;2023-02-28T11:48:07;99338.41;;;-0.08;55.27
49627;BME280;35527;54.616;39.786;2023-02-28T11:51:21;99353.66;;;-0.14;55.41
49627;BME280;35527;54.616;39.786;2023-02-28T12:27:08;99288.22;;;0.20;57.92
49627;BME280;35527;54.616;39.786;2023-02-28T12:33:27;99290.81;;;0.11;58.85
49627;BME280;35527;54.616;39.786;2023-02-28T12:36:34;99295.06;;;0.13;58.71
49627;BME280;35527;54.616;39.786;2023-02-28T12:39:42;99303.53;;;0.14;59.79
49627;BME280;35527;54.616;39.786;2023-02-28T12:46:41;99314.56;;;0.17;60.71
49627;BME280;35527;54.616;39.786;2023-02-28T12:49:46;99281.53;;;0.02;61.08
49627;BME280;35527;54.616;39.786;2023-02-28T12:59:27;99303.50;;;0.23;63.72
49627;BME280;35527;54.616;39.786;2023-02-28T13:10:00;99199.41;;;-0.14;64.38
49627;BME280;35527;54.616;39.786;2023-02-28T13:13:14;99263.81;;;-0.10;64.25
49627;BME280;35527;54.616;39.786;2023-02-28T13:16:21;99279.94;;;-0.16;65.00
49627;BME280;35527;54.616;39.786;2023-02-28T13:19:33;99279.94;;;-0.17;65.57
49627;BME280;35527;54.616;39.786;2023-02-28T13:22:45;99244.44;;;-0.40;65.70
49627;BME280;35527;54.616;39.786;2023-02-28T13:25:52;99262.13;;;-0.14;65.87
49627;BME280;35527;54.616;39.786;2023-02-28T13:32:29;99260.50;;;-0.32;66.46
49627;BME280;35527;54.616;39.786;2023-02-28T13:35:38;99257.13;;;-0.36;67.28
49627;BME280;35527;54.616;39.786;2023-02-28T13:38:54;99220.72;;;-0.44;67.86
49627;BME280;35527;54.616;39.786;2023-02-28T13:45:33;99219.00;;;-0.37;69.05
49627;BME280;35527;54.616;39.786;2023-02-28T13:48:40;99237.72;;;-0.55;70.02
49627;BME280;35527;54.616;39.786;2023-02-28T13:52:32;99228.41;;;-0.58;69.58
49627;BME280;35527;54.616;39.786;2023-02-28T13:59:06;99218.22;;;-0.50;71.42
49627;BME280;35527;54.616;39.786;2023-02-28T14:05:34;99204.75;;;-0.68;74.07
49627;BME280;35527;54.616;39.786;2023-02-28T14:08:47;99178.53;;;-0.74;76.30
49627;BME280;35527;54.616;39.786;2023-02-28T14:11:57;99183.56;;;-0.70;77.35
49627;BME280;35527;54.616;39.786;2023-02-28T14:15:01;99166.59;;;-0.66;79.05
49627;BME280;35527;54.616;39.786;2023-02-28T14:27:53;99152.22;;;-0.67;91.43
49627;BME280;35527;54.616;39.786;2023-02-28T14:37:38;99170.03;;;-0.78;96.38
49627;BME280;35527;54.616;39.786;2023-02-28T14:40:41;99155.63;;;-0.71;97.06
49627;BME280;35527;54.616;39.786;2023-02-28T14:43:55;99107.41;;;-0.77;97.32
49627;BME280;35527;54.616;39.786;2023-02-28T14:47:00;99122.66;;;-0.85;98.09
49627;BME280;35527;54.616;39.786;2023-02-28T14:50:18;99055.81;;;-0.93;99.59
49627;BME280;35527;54.616;39.786;2023-02-28T14:53:26;99102.34;;;-0.89;100.00
49627;BME280;35527;54.616;39.786;2023-02-28T14:56:36;99104.03;;;-0.87;99.76
49627;BME280;35527;54.616;39.786;2023-02-28T14:59:40;99113.38;;;-0.92;100.00
49627;BME280;35527;54.616;39.786;2023-02-28T15:02:45;99066.94;;;-1.14;99.92
49627;BME280;35527;54.616;39.786;2023-02-28T15:05:56;99115.03;;;-0.85;100.00
49627;BME280;35527;54.616;39.786;2023-02-28T15:09:09;99128.56;;;-0.78;99.66
49627;BME280;35527;54.616;39.786;2023-02-28T15:12:14;99121.81;;;-0.87;99.57
49627;BME280;35527;54.616;39.786;2023-02-28T15:15:20;99112.50;;;-0.86;99.63
49627;BME280;35527;54.616;39.786;2023-02-28T15:18:48;99084.59;;;-0.91;99.42
49627;BME280;35527;54.616;39.786;2023-02-28T15:22:07;99103.22;;;-0.91;100.00
49627;BME280;35527;54.616;39.786;2023-02-28T15:25:20;99098.97;;;-0.85;100.00
49627;BME280;35527;54.616;39.786;2023-02-28T15:28:24;99091.44;;;-1.05;100.00
49627;BME280;35527;54.616;39.786;2023-02-28T15:31:30;99099.81;;;-0.85;100.00
49627;BME280;35527;54.616;39.786;2023-02-28T15:34:57;99099.84;;;-0.91;100.00
49627;BME280;35527;54.616;39.786;2023-02-28T15:41:24;99106.50;;;-0.67;100.00
49627;BME280;35527;54.616;39.786;2023-02-28T15:44:33;99080.31;;;-0.86;100.00
49627;BME280;35527;54.616;39.786;2023-02-28T15:47:39;99085.41;;;-0.87;100.00
49627;BME280;35527;54.616;39.786;2023-02-28T15:50:43;99101.47;;;-0.79;100.00
49627;BME280;35527;54.616;39.786;2023-02-28T15:53:51;99082.03;;;-0.89;100.00
49627;BME280;35527;54.616;39.786;2023-02-28T15:57:02;99044.78;;;-0.89;100.00
49627;BME280;35527;54.616;39.786;2023-02-28T16:00:18;99072.69;;;-0.81;100.00
49627;BME280;35527;54.616;39.786;2023-02-28T16:03:38;99080.31;;;-0.81;100.00
49627;BME280;35527;54.616;39.786;2023-02-28T16:06:43;99093.88;;;-0.87;100.00
49627;BME280;35527;54.616;39.786;2023-02-28T16:09:48;99055.00;;;-0.97;100.00
49627;BME280;35527;54.616;39.786;2023-02-28T16:12:53;99045.59;;;-0.81;100.00
49627;BME280;35527;54.616;39.786;2023-02-28T16:15:58;99070.97;;;-0.78;100.00
49627;BME280;35527;54.616;39.786;2023-02-28T16:19:07;99048.97;;;-0.79;100.00
49627;BME280;35527;54.616;39.786;2023-02-28T16:22:10;99033.72;;;-0.80;100.00
49627;BME280;35527;54.616;39.786;2023-02-28T16:25:14;99081.91;;;-0.63;100.00
49627;BME280;35527;54.616;39.786;2023-02-28T16:28:27;99048.88;;;-0.65;100.00
49627;BME280;35527;54.616;39.786;2023-02-28T16:31:37;99012.50;;;-0.72;100.00
49627;BME280;35527;54.616;39.786;2023-02-28T16:34:46;99008.25;;;-0.65;100.00
49627;BME280;35527;54.616;39.786;2023-02-28T16:37:51;99027.72;;;-0.65;100.00
49627;BME280;35527;54.616;39.786;2023-02-28T16:40:58;99043.84;;;-0.68;100.00
49627;BME280;35527;54.616;39.786;2023-02-28T16:44:09;98998.13;;;-0.73;100.00
49627;BME280;35527;54.616;39.786;2023-02-28T16:47:16;99013.47;;;-0.93;100.00
49627;BME280;35527;54.616;39.786;2023-02-28T16:50:27;99037.03;;;-0.63;100.00
49627;BME280;35527;54.616;39.786;2023-02-28T16:53:31;98999.09;;;-0.92;100.00
49627;BME280;35527;54.616;39.786;2023-02-28T16:56:43;98999.91;;;-0.85;100.00
49627;BME280;35527;54.616;39.786;2023-02-28T16:59:47;99000.69;;;-0.80;100.00
49627;BME280;35527;54.616;39.786;2023-02-28T17:02:53;99020.22;;;-0.82;100.00
49627;BME280;35527;54.616;39.786;2023-02-28T17:06:04;98988.81;;;-0.74;100.00
49627;BME280;35527;54.616;39.786;2023-02-28T17:09:11;98991.44;;;-0.89;100.00
49627;BME280;35527;54.616;39.786;2023-02-28T17:12:19;98984.72;;;-0.92;100.00
49627;BME280;35527;54.616;39.786;2023-02-28T17:15:22;98984.53;;;-0.67;100.00
49627;BME280;35527;54.616;39.786;2023-02-28T17:18:28;99000.69;;;-0.80;100.00
49627;BME280;35527;54.616;39.786;2023-02-28T17:21:36;99004.91;;;-0.75;100.00
49627;BME280;35527;54.616;39.786;2023-02-28T17:24:39;98987.94;;;-0.68;100.00
49627;BME280;35527;54.616;39.786;2023-02-28T17:27:44;98994.06;;;-1.00;100.00
49627;BME280;35527;54.616;39.786;2023-02-28T17:30:47;98994.03;;;-0.98;100.00
49627;BME280;35527;54.616;39.786;2023-02-28T17:33:52;98967.84;;;-1.02;100.00
49627;BME280;35527;54.616;39.786;2023-02-28T17:36:59;98974.59;;;-1.04;100.00
49627;BME280;35527;54.616;39.786;2023-02-28T17:40:04;98989.00;;;-1.00;100.00
49627;BME280;35527;54.616;39.786;2023-02-28T17:43:12;98971.00;;;-0.69;100.00
49627;BME280;35527;54.616;39.786;2023-02-28T17:46:18;98953.31;;;-0.84;100.00
49627;BME280;35527;54.616;39.786;2023-02-28T17:49:23;98967.75;;;-0.88;100.00
49627;BME280;35527;54.616;39.786;2023-02-28T17:52:27;98979.59;;;-0.87;100.00
49627;BME280;35527;54.616;39.786;2023-02-28T17:55:33;98967.72;;;-0.82;100.00
49627;BME280;35527;54.616;39.786;2023-02-28T17:58:36;98965.19;;;-0.86;100.00
49627;BME280;35527;54.616;39.786;2023-02-28T18:01:45;98960.09;;;-0.85;100.00
49627;BME280;35527;54.616;39.786;2023-02-28T18:04:51;98965.97;;;-0.74;100.00
49627;BME280;35527;54.616;39.786;2023-02-28T18:07:57;98970.97;;;-0.63;100.00
49627;BME280;35527;54.616;39.786;2023-02-28T18:11:01;98954.97;;;-0.76;100.00
49627;BME280;35527;54.616;39.786;2023-02-28T18:14:04;98955.81;;;-0.77;100.00
49627;BME280;35527;54.616;39.786;2023-02-28T18:17:09;98930.41;;;-0.77;100.00
49627;BME280;35527;54.616;39.786;2023-02-28T18:20:14;98932.13;;;-0.80;100.00
49627;BME280;35527;54.616;39.786;2023-02-28T18:23:21;98962.63;;;-0.82;100.00
49627;BME280;35527;54.616;39.786;2023-02-28T18:26:25;98956.69;;;-0.81;100.00
49627;BME280;35527;54.616;39.786;2023-02-28T18:29:29;98936.44;;;-0.90;100.00
49627;BME280;35527;54.616;39.786;2023-02-28T18:32:35;98924.59;;;-0.91;100.00
49627;BME280;35527;54.616;39.786;2023-02-28T18:35:38;98928.72;;;-0.78;100.00
49627;BME280;35527;54.616;39.786;2023-02-28T18:38:41;98946.47;;;-0.73;100.00
49627;BME280;35527;54.616;39.786;2023-02-28T18:41:46;98949.88;;;-0.76;100.00